createdAt,value
2022-11-05T00:00:43.379Z,1005.3
2022-11-05T00:01:43.590Z,1005.4
2022-11-05T00:02:43.403Z,1005.4
2022-11-05T00:03:43.545Z,1005.3
2022-11-05T00:04:43.435Z,1005.4
2022-11-05T00:05:43.447Z,1005.3
2022-11-05T00:06:43.462Z,1005.3
2022-11-05T00:07:43.473Z,1005.3
2022-11-05T00:08:43.485Z,1005.4
2022-11-05T00:09:43.503Z,1005.4
2022-11-05T00:10:43.507Z,1005.4
2022-11-05T00:11:43.522Z,1005.4
2022-11-05T00:12:43.529Z,1005.4
2022-11-05T00:13:43.543Z,1005.4
2022-11-05T00:14:43.552Z,1005.4
2022-11-05T00:15:43.566Z,1005.4
2022-11-05T00:16:43.570Z,1005.5
2022-11-05T00:17:43.572Z,1005.4
2022-11-05T00:18:43.601Z,1005.4
2022-11-05T00:19:43.617Z,1005.4
2022-11-05T00:20:43.625Z,1005.4
2022-11-05T00:21:43.644Z,1005.4
2022-11-05T00:22:43.666Z,1005.4
2022-11-05T00:23:43.660Z,1005.5
2022-11-05T00:24:43.679Z,1005.5
2022-11-05T00:25:43.715Z,1005.5
2022-11-05T00:26:43.693Z,1005.5
2022-11-05T00:27:43.702Z,1005.6
2022-11-05T00:28:43.713Z,1005.5
2022-11-05T00:29:43.730Z,1005.5
2022-11-05T00:30:43.759Z,1005.6
2022-11-05T00:31:43.766Z,1005.6
2022-11-05T00:32:43.774Z,1005.6
2022-11-05T00:33:43.792Z,1005.6
2022-11-05T00:34:43.799Z,1005.7
2022-11-05T00:35:43.814Z,1005.7
2022-11-05T00:36:43.836Z,1005.7
2022-11-05T00:37:50.659Z,1005.6
2022-11-05T00:38:43.860Z,1005.7
2022-11-05T00:39:43.880Z,1005.7
2022-11-05T00:40:43.901Z,1005.7
2022-11-05T00:41:43.908Z,1005.7
2022-11-05T00:42:43.934Z,1005.6
2022-11-05T00:43:43.950Z,1005.7
2022-11-05T00:44:43.955Z,1005.7
2022-11-05T00:45:43.975Z,1005.7
2022-11-05T00:46:43.982Z,1005.7
2022-11-05T00:47:44.003Z,1005.7
2022-11-05T00:48:44.001Z,1005.7
2022-11-05T00:49:44.014Z,1005.7
2022-11-05T00:50:44.027Z,1005.8
2022-11-05T00:51:44.039Z,1005.8
2022-11-05T00:52:44.050Z,1005.8
2022-11-05T00:53:44.074Z,1005.7
2022-11-05T00:54:44.080Z,1005.8
2022-11-05T00:55:44.095Z,1005.8
2022-11-05T00:56:44.107Z,1005.8
2022-11-05T00:57:44.112Z,1005.8
2022-11-05T00:58:44.125Z,1005.8
2022-11-05T00:59:44.143Z,1005.9
2022-11-05T01:00:44.152Z,1005.8
2022-11-05T01:01:44.407Z,1005.9
2022-11-05T01:02:44.482Z,1006.0
2022-11-05T01:03:51.783Z,1005.9
2022-11-05T01:04:44.205Z,1006.0
2022-11-05T01:05:44.231Z,1006.0
2022-11-05T01:06:44.238Z,1006.1
2022-11-05T01:07:44.233Z,1006.0
2022-11-05T01:08:44.273Z,1006.0
2022-11-05T01:09:44.258Z,1006.0
2022-11-05T01:10:44.278Z,1006.0
2022-11-05T01:11:44.282Z,1006.0
2022-11-05T01:12:44.342Z,1005.9
2022-11-05T01:13:44.309Z,1006.0
2022-11-05T01:14:44.324Z,1006.0
2022-11-05T01:15:44.348Z,1006.0
2022-11-05T01:16:44.371Z,1006.0
2022-11-05T01:17:44.374Z,1006.1
2022-11-05T01:18:44.387Z,1006.0
2022-11-05T01:19:44.397Z,1006.0
2022-11-05T01:20:44.427Z,1006.0
2022-11-05T01:21:44.432Z,1006.1
2022-11-05T01:22:44.433Z,1006.1
2022-11-05T01:23:44.444Z,1006.0
2022-11-05T01:24:44.462Z,1006.0
2022-11-05T01:25:44.469Z,1006.1
2022-11-05T01:26:44.471Z,1006.0
2022-11-05T01:27:44.497Z,1006.0
2022-11-05T01:28:44.675Z,1006.0
2022-11-05T01:29:44.505Z,1006.1
2022-11-05T01:30:44.525Z,1006.0
2022-11-05T01:31:44.549Z,1006.0
2022-11-05T01:32:44.574Z,1006.0
2022-11-05T01:33:44.596Z,1006.0
2022-11-05T01:34:44.608Z,1006.0
2022-11-05T01:35:44.616Z,1006.0
2022-11-05T01:36:44.635Z,1006.0
2022-11-05T01:37:44.639Z,1006.0
2022-11-05T01:38:44.660Z,1006.0
2022-11-05T01:39:44.661Z,1006.0
2022-11-05T01:40:44.692Z,1006.0
2022-11-05T01:41:44.681Z,1006.0
2022-11-05T01:42:44.713Z,1006.0
2022-11-05T01:43:44.715Z,1006.0
2022-11-05T01:44:44.728Z,1006.0
2022-11-05T01:45:44.739Z,1006.0
2022-11-05T01:46:44.745Z,1006.0
2022-11-05T01:47:44.758Z,1006.0
2022-11-05T01:48:44.773Z,1005.9
2022-11-05T01:49:44.778Z,1006.0
2022-11-05T01:50:44.788Z,1005.9
2022-11-05T01:51:44.793Z,1005.9
2022-11-05T02:09:45.288Z,1006.1
2022-11-05T02:10:44.924Z,1006.0
2022-11-05T02:11:44.929Z,1006.0
2022-11-05T02:12:44.937Z,1006.1
2022-11-05T02:13:44.941Z,1006.0
2022-11-05T02:14:44.946Z,1006.0
2022-11-05T02:15:44.957Z,1006.1
2022-11-05T02:16:44.961Z,1006.0
2022-11-05T02:17:44.967Z,1006.0
2022-11-05T02:18:44.971Z,1006.1
2022-11-05T02:19:44.981Z,1006.1
2022-11-05T02:20:52.397Z,1006.1
2022-11-05T02:21:44.990Z,1006.1
2022-11-05T02:22:44.994Z,1006.1
2022-11-05T02:23:45.000Z,1006.2
2022-11-05T02:24:45.013Z,1006.1
2022-11-05T02:25:45.027Z,1006.0
2022-11-05T02:26:45.025Z,1006.0
2022-11-05T02:27:45.036Z,1006.0
2022-11-05T02:28:45.041Z,1006.0
2022-11-05T02:29:45.053Z,1006.0
2022-11-05T02:30:45.056Z,1006.1
2022-11-05T02:31:45.076Z,1006.0
2022-11-05T02:32:45.078Z,1006.0
2022-11-05T02:33:45.086Z,1006.1
2022-11-05T02:34:45.091Z,1006.0
2022-11-05T02:35:45.099Z,1006.1
2022-11-05T02:36:45.100Z,1006.1
2022-11-05T02:37:45.109Z,1006.1
2022-11-05T02:38:45.112Z,1006.0
2022-11-05T02:39:45.120Z,1006.1
2022-11-05T02:40:45.128Z,1006.0
2022-11-05T02:41:45.134Z,1006.0
2022-11-05T02:42:45.138Z,1006.1
2022-11-05T02:43:45.143Z,1006.1
2022-11-05T02:44:45.145Z,1006.0
2022-11-05T02:45:45.154Z,1006.0
2022-11-05T02:46:45.166Z,1006.1
2022-11-05T02:47:45.168Z,1006.0
2022-11-05T02:48:45.169Z,1006.1
2022-11-05T02:49:45.189Z,1006.0
2022-11-05T02:50:45.185Z,1006.0
2022-11-05T02:51:45.197Z,1006.1
2022-11-05T02:52:45.213Z,1006.0
2022-11-05T02:53:45.219Z,1006.0
2022-11-05T02:54:45.221Z,1006.1
2022-11-05T02:55:45.241Z,1006.0
2022-11-05T02:56:45.241Z,1006.1
2022-11-05T02:57:45.248Z,1006.1
2022-11-05T02:58:45.257Z,1006.1
2022-11-05T02:59:45.270Z,1006.1
2022-11-05T03:00:45.275Z,1006.1
2022-11-05T03:01:45.643Z,1006.1
2022-11-05T03:02:45.542Z,1006.1
2022-11-05T03:03:45.338Z,1006.1
2022-11-05T03:04:45.304Z,1006.0
2022-11-05T03:05:45.313Z,1006.1
2022-11-05T03:06:45.316Z,1006.1
2022-11-05T03:07:45.319Z,1006.0
2022-11-05T03:08:45.326Z,1006.1
2022-11-05T03:09:45.330Z,1006.1
2022-11-05T03:10:45.347Z,1006.1
2022-11-05T03:11:45.348Z,1006.0
2022-11-05T03:12:45.348Z,1006.2
2022-11-05T03:13:45.354Z,1006.1
2022-11-05T03:14:45.362Z,1006.1
2022-11-05T03:15:45.368Z,1006.0
2022-11-05T03:16:45.375Z,1006.1
2022-11-05T03:17:45.388Z,1006.1
2022-11-05T03:18:45.391Z,1006.1
2022-11-05T03:19:45.399Z,1006.1
2022-11-05T03:20:45.405Z,1006.2
2022-11-05T03:21:45.431Z,1006.2
2022-11-05T03:22:45.457Z,1006.2
2022-11-05T03:23:45.419Z,1006.2
2022-11-05T03:24:45.426Z,1006.2
2022-11-05T03:25:45.434Z,1006.2
2022-11-05T03:26:45.437Z,1006.2
2022-11-05T03:27:45.451Z,1006.2
2022-11-05T03:28:45.447Z,1006.2
2022-11-05T03:29:45.457Z,1006.2
2022-11-05T03:30:45.465Z,1006.3
2022-11-05T03:31:45.469Z,1006.3
2022-11-05T03:32:45.476Z,1006.3
2022-11-05T03:33:45.482Z,1006.3
2022-11-05T03:34:45.486Z,1006.3
2022-11-05T03:35:45.493Z,1006.3
2022-11-05T03:36:45.500Z,1006.4
2022-11-05T03:37:45.506Z,1006.3
2022-11-05T03:38:45.516Z,1006.3
2022-11-05T03:39:45.518Z,1006.3
2022-11-05T03:40:45.532Z,1006.3
2022-11-05T03:41:45.536Z,1006.3
2022-11-05T03:42:45.534Z,1006.4
2022-11-05T03:43:45.541Z,1006.3
2022-11-05T03:44:45.552Z,1006.4
2022-11-05T03:45:45.555Z,1006.4
2022-11-05T03:46:45.560Z,1006.4
2022-11-05T03:47:45.568Z,1006.4
2022-11-05T03:48:45.703Z,1006.4
2022-11-05T03:49:45.578Z,1006.4
2022-11-05T03:50:45.584Z,1006.4
2022-11-05T03:51:45.590Z,1006.4
2022-11-05T03:52:45.603Z,1006.4
2022-11-05T03:53:45.603Z,1006.4
2022-11-05T03:54:45.607Z,1006.5
2022-11-05T03:55:45.611Z,1006.5
2022-11-05T03:56:45.616Z,1006.4
2022-11-05T03:57:45.625Z,1006.5
2022-11-05T03:58:45.640Z,1006.5
2022-11-05T03:59:45.647Z,1006.6
2022-11-05T04:00:45.643Z,1006.6
2022-11-05T04:01:45.935Z,1006.5
2022-11-05T04:02:45.946Z,1006.5
2022-11-05T04:03:45.662Z,1006.6
2022-11-05T04:04:45.671Z,1006.6
2022-11-05T04:05:45.673Z,1006.5
2022-11-05T04:06:45.677Z,1006.5
2022-11-05T04:07:45.685Z,1006.5
2022-11-05T04:08:45.704Z,1006.5
2022-11-05T04:09:45.694Z,1006.5
2022-11-05T04:10:45.699Z,1006.5
2022-11-05T04:11:45.706Z,1006.5
2022-11-05T04:12:45.714Z,1006.5
2022-11-05T04:13:45.726Z,1006.5
2022-11-05T04:14:45.724Z,1006.5
2022-11-05T04:15:45.724Z,1006.5
2022-11-05T04:16:45.735Z,1006.5
2022-11-05T04:17:45.744Z,1006.5
2022-11-05T04:18:45.744Z,1006.5
2022-11-05T04:19:45.750Z,1006.4
2022-11-05T04:20:45.757Z,1006.4
2022-11-05T04:21:45.771Z,1006.5
2022-11-05T04:22:45.771Z,1006.5
2022-11-05T04:23:45.788Z,1006.5
2022-11-05T04:24:45.786Z,1006.6
2022-11-05T04:25:45.790Z,1006.5
2022-11-05T04:26:45.791Z,1006.6
2022-11-05T04:27:45.802Z,1006.6
2022-11-05T04:28:45.811Z,1006.6
2022-11-05T04:29:45.815Z,1006.6
2022-11-05T04:30:45.824Z,1006.6
2022-11-05T04:31:45.829Z,1006.7
2022-11-05T04:32:45.830Z,1006.6
2022-11-05T04:33:45.834Z,1006.7
2022-11-05T04:34:45.835Z,1006.7
2022-11-05T04:35:45.851Z,1006.7
2022-11-05T04:36:45.851Z,1006.7
2022-11-05T04:37:45.861Z,1006.7
2022-11-05T04:38:45.868Z,1006.7
2022-11-05T04:39:45.872Z,1006.7
2022-11-05T04:40:45.882Z,1006.6
2022-11-05T04:41:45.934Z,1006.7
2022-11-05T04:42:45.899Z,1006.7
2022-11-05T04:43:45.908Z,1006.7
2022-11-05T04:44:45.914Z,1006.8
2022-11-05T04:45:45.917Z,1006.8
2022-11-05T04:46:45.926Z,1006.7
2022-11-05T04:47:45.931Z,1006.7
2022-11-05T04:48:45.940Z,1006.7
2022-11-05T04:49:45.949Z,1006.9
2022-11-05T04:50:45.959Z,1006.8
2022-11-05T04:51:45.964Z,1006.8
2022-11-05T04:52:45.966Z,1006.8
2022-11-05T04:53:45.976Z,1006.8
2022-11-05T04:54:45.985Z,1006.8
2022-11-05T04:55:45.986Z,1006.8
2022-11-05T04:56:45.988Z,1006.8
2022-11-05T04:57:45.994Z,1006.8
2022-11-05T04:58:46.004Z,1006.9
2022-11-05T04:59:46.008Z,1006.9
2022-11-05T05:00:46.175Z,1007.0
2022-11-05T05:01:46.119Z,1006.8
2022-11-05T05:02:46.025Z,1007.0
2022-11-05T05:03:46.030Z,1006.9
2022-11-05T05:04:46.045Z,1006.8
2022-11-05T05:05:46.047Z,1007.0
2022-11-05T05:06:46.057Z,1006.9
2022-11-05T05:07:46.062Z,1006.8
2022-11-05T05:08:46.067Z,1007.0
2022-11-05T05:09:46.078Z,1006.9
2022-11-05T05:10:46.072Z,1006.9
2022-11-05T05:11:46.078Z,1006.9
2022-11-05T05:12:46.084Z,1006.9
2022-11-05T05:13:46.093Z,1006.9
2022-11-05T05:14:46.103Z,1006.9
2022-11-05T05:15:46.106Z,1006.8
2022-11-05T05:16:46.108Z,1007.0
2022-11-05T05:17:46.121Z,1006.9
2022-11-05T05:18:46.752Z,1006.9
2022-11-05T05:19:46.128Z,1006.9
2022-11-05T05:20:46.136Z,1006.8
2022-11-05T05:21:46.144Z,1006.8
2022-11-05T05:22:46.152Z,1006.9
2022-11-05T05:23:46.190Z,1006.9
2022-11-05T05:24:53.020Z,1006.8
2022-11-05T05:25:46.173Z,1006.8
2022-11-05T05:26:46.184Z,1006.9
2022-11-05T05:27:46.193Z,1006.9
2022-11-05T05:28:46.200Z,1006.9
2022-11-05T05:29:46.206Z,1007.0
2022-11-05T05:30:46.220Z,1006.9
2022-11-05T05:31:46.226Z,1007.0
2022-11-05T05:32:46.228Z,1006.9
2022-11-05T05:33:46.239Z,1007.0
2022-11-05T05:34:46.243Z,1007.0
2022-11-05T05:35:46.254Z,1007.0
2022-11-05T05:36:46.270Z,1007.0
2022-11-05T05:37:46.269Z,1007.0
2022-11-05T05:38:46.279Z,1007.0
2022-11-05T05:39:46.282Z,1007.0
2022-11-05T05:40:46.300Z,1007.0
2022-11-05T05:41:46.310Z,1007.0
2022-11-05T05:42:46.307Z,1007.1
2022-11-05T05:43:46.319Z,1007.0
2022-11-05T05:44:46.326Z,1007.1
2022-11-05T05:45:46.331Z,1007.0
2022-11-05T05:46:46.336Z,1007.1
2022-11-05T05:47:46.346Z,1007.2
2022-11-05T05:48:46.354Z,1007.1
2022-11-05T05:49:46.358Z,1007.1
2022-11-05T05:50:46.364Z,1007.1
2022-11-05T05:51:46.371Z,1007.2
2022-11-05T05:52:46.379Z,1007.1
2022-11-05T05:53:46.397Z,1007.2
2022-11-05T05:54:46.393Z,1007.2
2022-11-05T05:55:46.396Z,1007.2
2022-11-05T05:56:46.413Z,1007.2
2022-11-05T05:57:46.425Z,1007.2
2022-11-05T05:58:46.424Z,1007.2
2022-11-05T05:59:46.435Z,1007.2
2022-11-05T06:00:46.438Z,1007.3
2022-11-05T06:01:46.717Z,1007.2
2022-11-05T06:02:46.777Z,1007.1
2022-11-05T06:03:46.462Z,1007.2
2022-11-05T06:04:46.468Z,1007.3
2022-11-05T06:05:46.476Z,1007.2
2022-11-05T06:06:46.485Z,1007.3
2022-11-05T06:07:46.486Z,1007.3
2022-11-05T06:08:46.499Z,1007.2
2022-11-05T06:09:46.503Z,1007.3
2022-11-05T06:10:46.632Z,1007.3
2022-11-05T06:11:46.531Z,1007.3
2022-11-05T06:12:46.537Z,1007.3
2022-11-05T06:13:46.536Z,1007.3
2022-11-05T06:14:46.563Z,1007.3
2022-11-05T06:15:46.562Z,1007.4
2022-11-05T06:16:46.582Z,1007.3
2022-11-05T06:17:46.570Z,1007.4
2022-11-05T06:18:46.583Z,1007.4
2022-11-05T06:19:46.586Z,1007.3
2022-11-05T06:20:46.605Z,1007.3
2022-11-05T06:21:46.621Z,1007.4
2022-11-05T06:22:46.618Z,1007.4
2022-11-05T06:23:46.640Z,1007.5
2022-11-05T06:24:46.624Z,1007.4
2022-11-05T06:25:46.648Z,1007.4
2022-11-05T06:26:46.655Z,1007.3
2022-11-05T06:27:46.646Z,1007.5
2022-11-05T06:28:46.650Z,1007.4
2022-11-05T06:29:46.660Z,1007.4
2022-11-05T06:30:46.673Z,1007.3
2022-11-05T06:31:46.690Z,1007.5
2022-11-05T06:32:46.682Z,1007.5
2022-11-05T06:33:46.684Z,1007.6
2022-11-05T06:34:46.698Z,1007.5
2022-11-05T06:35:46.706Z,1007.5
2022-11-05T06:36:46.711Z,1007.5
2022-11-05T06:37:46.717Z,1007.4
2022-11-05T06:38:46.731Z,1007.6
2022-11-05T06:39:46.730Z,1007.5
2022-11-05T06:40:46.735Z,1007.6
2022-11-05T06:42:17.012Z,1007.5
2022-11-05T06:42:46.759Z,1007.6
2022-11-05T06:43:46.776Z,1007.6
2022-11-05T06:44:46.782Z,1007.6
2022-11-05T06:45:46.780Z,1007.6
2022-11-05T06:46:48.859Z,1007.6
2022-11-05T06:47:46.786Z,1007.6
2022-11-05T06:48:46.797Z,1007.6
2022-11-05T06:49:46.802Z,1007.6
2022-11-05T06:50:46.815Z,1007.6
2022-11-05T06:51:46.820Z,1007.6
2022-11-05T06:52:46.823Z,1007.6
2022-11-05T06:53:46.832Z,1007.7
2022-11-05T06:54:46.834Z,1007.6
2022-11-05T06:55:46.846Z,1007.7
2022-11-05T06:56:46.879Z,1007.7
2022-11-05T06:57:46.852Z,1007.6
2022-11-05T06:58:46.859Z,1007.6
2022-11-05T06:59:46.867Z,1007.7
2022-11-05T07:00:47.057Z,1007.7
2022-11-05T07:01:47.250Z,1007.6
2022-11-05T07:02:46.908Z,1007.7
2022-11-05T07:03:46.897Z,1007.6
2022-11-05T07:04:46.906Z,1007.6
2022-11-05T07:05:46.906Z,1007.7
2022-11-05T07:06:46.923Z,1007.7
2022-11-05T07:07:46.924Z,1007.7
2022-11-05T07:08:46.930Z,1007.7
2022-11-05T07:09:46.939Z,1007.7
2022-11-05T07:10:46.941Z,1007.8
2022-11-05T07:11:46.951Z,1007.7
2022-11-05T07:12:46.961Z,1007.8
2022-11-05T07:13:46.966Z,1007.8
2022-11-05T07:14:46.973Z,1007.8
2022-11-05T07:15:46.987Z,1007.9
2022-11-05T07:16:46.987Z,1007.8
2022-11-05T07:17:46.997Z,1007.9
2022-11-05T07:18:46.994Z,1007.9
2022-11-05T07:19:47.006Z,1007.9
2022-11-05T07:20:47.018Z,1007.9
2022-11-05T07:21:47.014Z,1007.9
2022-11-05T07:22:47.019Z,1007.9
2022-11-05T07:23:47.028Z,1007.9
2022-11-05T07:24:47.041Z,1008.0
2022-11-05T07:25:47.044Z,1007.9
2022-11-05T07:26:47.059Z,1008.0
2022-11-05T07:27:47.068Z,1007.9
2022-11-05T07:28:47.071Z,1008.0
2022-11-05T07:29:47.084Z,1007.9
2022-11-05T07:30:47.090Z,1008.0
2022-11-05T07:31:47.111Z,1008.0
2022-11-05T07:32:47.109Z,1008.0
2022-11-05T07:33:47.127Z,1008.0
2022-11-05T07:34:47.129Z,1008.0
2022-11-05T07:35:47.133Z,1008.0
2022-11-05T07:36:47.143Z,1008.0
2022-11-05T07:37:47.156Z,1008.0
2022-11-05T07:38:47.163Z,1008.0
2022-11-05T07:39:47.172Z,1008.0
2022-11-05T07:40:47.181Z,1008.1
2022-11-05T07:41:47.185Z,1008.1
2022-11-05T07:42:47.211Z,1008.1
2022-11-05T07:43:47.202Z,1008.1
2022-11-05T07:44:47.210Z,1008.1
2022-11-05T07:45:47.218Z,1008.1
2022-11-05T07:46:47.220Z,1008.1
2022-11-05T07:47:47.224Z,1008.2
2022-11-05T07:48:47.242Z,1008.2
2022-11-05T07:49:47.243Z,1008.2
2022-11-05T07:50:47.254Z,1008.2
2022-11-05T07:51:47.259Z,1008.2
2022-11-05T07:52:47.271Z,1008.3
2022-11-05T07:53:47.271Z,1008.2
2022-11-05T07:54:47.288Z,1008.2
2022-11-05T07:55:47.307Z,1008.3
2022-11-05T07:56:47.307Z,1008.1
2022-11-05T07:57:47.312Z,1008.1
2022-11-05T07:58:47.319Z,1008.1
2022-11-05T07:59:47.326Z,1008.3
2022-11-05T08:00:47.556Z,1008.2
2022-11-05T08:01:47.863Z,1008.2
2022-11-05T08:02:47.830Z,1008.2
2022-11-05T08:03:47.559Z,1008.2
2022-11-05T08:04:47.376Z,1008.2
2022-11-05T08:05:47.406Z,1008.2
2022-11-05T08:06:47.461Z,1008.2
2022-11-05T08:07:47.372Z,1008.2
2022-11-05T08:08:47.378Z,1008.2
2022-11-05T08:09:47.377Z,1008.3
2022-11-05T08:10:47.390Z,1008.1
2022-11-05T08:11:47.388Z,1008.3
2022-11-05T08:12:47.391Z,1008.2
2022-11-05T08:13:47.399Z,1008.2
2022-11-05T08:14:47.405Z,1008.2
2022-11-05T08:15:47.406Z,1008.2
2022-11-05T08:16:47.409Z,1008.2
2022-11-05T08:17:47.474Z,1008.2
2022-11-05T08:18:47.433Z,1008.2
2022-11-05T08:19:47.431Z,1008.3
2022-11-05T08:20:47.439Z,1008.2
2022-11-05T08:21:47.444Z,1008.2
2022-11-05T08:22:47.455Z,1008.3
2022-11-05T08:23:47.457Z,1008.3
2022-11-05T08:24:47.464Z,1008.3
2022-11-05T08:25:47.472Z,1008.3
2022-11-05T08:26:47.475Z,1008.4
2022-11-05T08:27:47.475Z,1008.4
2022-11-05T08:28:47.491Z,1008.4
2022-11-05T08:29:47.492Z,1008.3
2022-11-05T08:30:47.498Z,1008.4
2022-11-05T08:31:47.500Z,1008.3
2022-11-05T08:32:47.510Z,1008.3
2022-11-05T08:33:47.516Z,1008.4
2022-11-05T08:34:47.523Z,1008.4
2022-11-05T08:35:47.520Z,1008.3
2022-11-05T08:36:47.531Z,1008.4
2022-11-05T08:37:47.530Z,1008.4
2022-11-05T08:38:47.545Z,1008.3
2022-11-05T08:39:47.557Z,1008.4
2022-11-05T08:40:47.578Z,1008.5
2022-11-05T08:41:47.572Z,1008.4
2022-11-05T08:42:47.580Z,1008.4
2022-11-05T08:43:47.594Z,1008.4
2022-11-05T08:44:47.613Z,1008.5
2022-11-05T08:45:47.633Z,1008.5
2022-11-05T08:46:47.610Z,1008.4
2022-11-05T08:47:47.615Z,1008.4
2022-11-05T08:48:47.622Z,1008.4
2022-11-05T08:49:47.629Z,1008.5
2022-11-05T08:50:47.656Z,1008.5
2022-11-05T08:51:47.659Z,1008.5
2022-11-05T08:52:47.650Z,1008.5
2022-11-05T08:53:47.666Z,1008.5
2022-11-05T08:54:47.667Z,1008.5
2022-11-05T08:55:47.869Z,1008.5
2022-11-05T08:56:47.685Z,1008.5
2022-11-05T08:57:47.692Z,1008.5
2022-11-05T08:58:47.693Z,1008.6
2022-11-05T08:59:47.705Z,1008.5
2022-11-05T09:00:47.958Z,1008.5
2022-11-05T09:01:48.043Z,1008.5
2022-11-05T09:02:47.728Z,1008.5
2022-11-05T09:03:47.737Z,1008.5
2022-11-05T09:04:47.754Z,1008.6
2022-11-05T09:05:47.745Z,1008.5
2022-11-05T09:06:47.755Z,1008.5
2022-11-05T09:07:47.762Z,1008.5
2022-11-05T09:08:47.762Z,1008.6
2022-11-05T09:09:47.773Z,1008.6
2022-11-05T09:10:47.807Z,1008.5
2022-11-05T09:12:11.481Z,1008.6
2022-11-05T09:12:47.808Z,1008.7
2022-11-05T09:13:47.813Z,1008.6
2022-11-05T09:14:47.825Z,1008.6
2022-11-05T09:15:47.833Z,1008.7
2022-11-05T09:16:47.847Z,1008.6
2022-11-05T09:17:47.847Z,1008.6
2022-11-05T09:18:47.851Z,1008.6
2022-11-05T09:19:47.863Z,1008.6
2022-11-05T09:20:47.862Z,1008.6
2022-11-05T09:21:47.869Z,1008.6
2022-11-05T09:22:47.882Z,1008.6
2022-11-05T09:23:47.891Z,1008.6
2022-11-05T09:24:47.895Z,1008.6
2022-11-05T09:25:47.902Z,1008.7
2022-11-05T09:26:47.904Z,1008.5
2022-11-05T09:27:47.909Z,1008.7
2022-11-05T09:28:47.913Z,1008.6
2022-11-05T09:29:47.925Z,1008.7
2022-11-05T09:30:47.928Z,1008.6
2022-11-05T09:31:47.932Z,1008.6
2022-11-05T09:32:47.937Z,1008.7
2022-11-05T09:33:47.951Z,1008.7
2022-11-05T09:34:47.960Z,1008.7
2022-11-05T09:35:47.963Z,1008.7
2022-11-05T09:36:47.980Z,1008.6
2022-11-05T09:37:47.986Z,1008.6
2022-11-05T09:38:48.010Z,1008.6
2022-11-05T09:39:48.018Z,1008.6
2022-11-05T09:40:48.009Z,1008.7
2022-11-05T09:41:48.007Z,1008.7
2022-11-05T09:42:48.026Z,1008.6
2022-11-05T09:43:48.034Z,1008.7
2022-11-05T09:44:48.037Z,1008.6
2022-11-05T09:45:48.044Z,1008.6
2022-11-05T09:46:48.054Z,1008.6
2022-11-05T09:47:48.063Z,1008.7
2022-11-05T09:48:48.086Z,1008.6
2022-11-05T09:49:48.077Z,1008.7
2022-11-05T09:50:48.089Z,1008.7
2022-11-05T09:51:48.101Z,1008.8
2022-11-05T09:52:48.105Z,1008.8
2022-11-05T09:53:48.105Z,1008.7
2022-11-05T09:54:48.119Z,1008.8
2022-11-05T09:55:48.124Z,1008.8
2022-11-05T09:56:48.135Z,1008.8
2022-11-05T09:57:48.154Z,1008.8
2022-11-05T09:58:48.155Z,1008.7
2022-11-05T09:59:48.166Z,1008.8
2022-11-05T10:00:48.264Z,1008.7
2022-11-05T10:01:48.592Z,1008.8
2022-11-05T10:02:48.187Z,1008.8
2022-11-05T10:03:48.203Z,1008.8
2022-11-05T10:04:48.214Z,1008.9
2022-11-05T10:05:48.404Z,1008.8
2022-11-05T10:06:48.229Z,1009.0
2022-11-05T10:07:48.248Z,1008.9
2022-11-05T10:08:48.242Z,1008.9
2022-11-05T10:09:48.254Z,1009.0
2022-11-05T10:10:48.260Z,1008.9
2022-11-05T10:11:48.274Z,1008.9
2022-11-05T10:12:48.281Z,1008.9
2022-11-05T10:13:48.294Z,1008.9
2022-11-05T10:14:48.299Z,1008.9
2022-11-05T10:15:48.345Z,1008.9
2022-11-05T10:16:48.318Z,1009.0
2022-11-05T10:17:48.330Z,1009.0
2022-11-05T10:18:48.332Z,1008.9
2022-11-05T10:19:48.343Z,1008.9
2022-11-05T10:20:48.359Z,1009.0
2022-11-05T10:22:07.048Z,1008.9
2022-11-05T10:22:49.988Z,1009.0
2022-11-05T10:23:48.373Z,1008.9
2022-11-05T10:24:48.419Z,1009.0
2022-11-05T10:25:48.393Z,1009.0
2022-11-05T10:26:48.398Z,1009.0
2022-11-05T10:27:48.406Z,1008.9
2022-11-05T10:28:48.415Z,1008.9
2022-11-05T10:29:48.433Z,1009.0
2022-11-05T10:30:48.439Z,1009.0
2022-11-05T10:31:48.445Z,1009.0
2022-11-05T10:32:48.462Z,1008.9
2022-11-05T10:33:48.462Z,1009.0
2022-11-05T10:34:48.471Z,1008.9
2022-11-05T10:35:48.477Z,1009.0
2022-11-05T10:36:48.484Z,1009.0
2022-11-05T10:37:48.493Z,1008.9
2022-11-05T10:38:48.566Z,1009.0
2022-11-05T10:39:48.508Z,1008.9
2022-11-05T10:40:48.554Z,1009.0
2022-11-05T10:41:48.524Z,1009.0
2022-11-05T10:42:48.531Z,1009.0
2022-11-05T10:43:48.545Z,1009.0
2022-11-05T10:44:48.551Z,1009.0
2022-11-05T10:45:48.562Z,1009.0
2022-11-05T10:46:48.562Z,1009.0
2022-11-05T10:47:48.574Z,1009.0
2022-11-05T10:48:48.587Z,1009.0
2022-11-05T10:49:48.593Z,1009.0
2022-11-05T10:50:48.601Z,1009.0
2022-11-05T10:51:48.612Z,1009.0
2022-11-05T10:52:48.622Z,1009.0
2022-11-05T10:53:48.628Z,1009.1
2022-11-05T10:54:48.633Z,1009.1
2022-11-05T10:55:48.643Z,1009.1
2022-11-05T10:56:48.650Z,1009.1
2022-11-05T10:57:48.656Z,1009.0
2022-11-05T10:58:48.667Z,1009.2
2022-11-05T10:59:48.676Z,1009.1
2022-11-05T11:00:48.798Z,1009.2
2022-11-05T11:01:48.913Z,1009.2
2022-11-05T11:02:48.707Z,1009.0
2022-11-05T11:03:48.900Z,1009.1
2022-11-05T11:04:48.720Z,1009.0
2022-11-05T11:05:48.730Z,1009.1
2022-11-05T11:06:48.743Z,1009.0
2022-11-05T11:07:48.748Z,1009.1
2022-11-05T11:08:48.756Z,1009.0
2022-11-05T11:09:48.761Z,1009.1
2022-11-05T11:10:48.767Z,1009.0
2022-11-05T11:11:48.783Z,1009.0
2022-11-05T11:12:48.784Z,1009.0
2022-11-05T11:13:48.796Z,1009.0
2022-11-05T11:14:48.802Z,1009.0
2022-11-05T11:15:48.807Z,1009.1
2022-11-05T11:16:48.818Z,1009.0
2022-11-05T11:17:48.825Z,1009.0
2022-11-05T11:18:48.830Z,1009.0
2022-11-05T11:19:48.841Z,1009.0
2022-11-05T11:20:48.851Z,1009.0
2022-11-05T11:21:48.863Z,1009.0
2022-11-05T11:22:48.869Z,1009.0
2022-11-05T11:23:48.882Z,1009.0
2022-11-05T11:24:48.905Z,1009.0
2022-11-05T11:25:48.915Z,1009.0
2022-11-05T11:26:48.908Z,1009.0
2022-11-05T11:27:48.920Z,1009.0
2022-11-05T11:28:48.932Z,1009.0
2022-11-05T11:29:49.908Z,1009.0
2022-11-05T11:30:48.950Z,1009.0
2022-11-05T11:31:49.004Z,1008.9
2022-11-05T11:32:48.971Z,1008.9
2022-11-05T11:33:48.975Z,1009.0
2022-11-05T11:34:49.022Z,1009.1
2022-11-05T11:35:49.003Z,1009.0
2022-11-05T11:36:49.011Z,1009.0
2022-11-05T11:37:49.019Z,1009.0
2022-11-05T11:38:49.024Z,1009.0
2022-11-05T11:39:49.028Z,1009.0
2022-11-05T11:40:49.041Z,1009.0
2022-11-05T11:41:49.049Z,1009.0
2022-11-05T11:42:49.050Z,1009.0
2022-11-05T11:43:49.066Z,1009.0
2022-11-05T11:44:49.072Z,1008.9
2022-11-05T11:45:49.085Z,1009.0
2022-11-05T11:46:49.092Z,1009.0
2022-11-05T11:47:49.099Z,1008.9
2022-11-05T11:48:49.121Z,1008.9
2022-11-05T11:49:49.122Z,1008.9
2022-11-05T11:50:49.123Z,1009.0
2022-11-05T11:51:50.391Z,1009.0
2022-11-05T11:52:49.160Z,1009.0
2022-11-05T11:53:49.154Z,1009.0
2022-11-05T11:54:49.153Z,1009.0
2022-11-05T11:55:49.174Z,1009.0
2022-11-05T11:56:49.171Z,1009.0
2022-11-05T11:57:49.185Z,1008.9
2022-11-05T11:58:49.197Z,1009.0
2022-11-05T12:00:49.210Z,1009.0
2022-11-05T12:01:49.308Z,1008.9
2022-11-05T12:02:49.401Z,1009.0
2022-11-05T12:03:49.243Z,1009.0
2022-11-05T12:04:49.248Z,1008.9
2022-11-05T12:05:49.266Z,1009.0
2022-11-05T12:06:49.269Z,1009.0
2022-11-05T12:07:49.280Z,1008.9
2022-11-05T12:09:01.905Z,1009.0
2022-11-05T12:09:49.290Z,1009.0
2022-11-05T12:10:49.296Z,1008.9
2022-11-05T12:11:49.304Z,1009.0
2022-11-05T12:12:49.323Z,1008.9
2022-11-05T12:13:49.496Z,1009.0
2022-11-05T12:14:49.336Z,1008.9
2022-11-05T12:15:49.356Z,1009.0
2022-11-05T12:16:49.357Z,1008.9
2022-11-05T12:17:49.364Z,1009.0
2022-11-05T12:18:49.375Z,1009.0
2022-11-05T12:19:49.386Z,1009.0
2022-11-05T12:20:58.116Z,1009.1
2022-11-05T12:21:53.615Z,1009.0
2022-11-05T12:22:49.423Z,1009.1
2022-11-05T12:23:49.418Z,1009.0
2022-11-05T12:24:49.433Z,1009.1
2022-11-05T12:25:49.435Z,1009.0
2022-11-05T12:26:49.447Z,1009.0
2022-11-05T12:27:49.462Z,1009.0
2022-11-05T12:29:17.654Z,1009.0
2022-11-05T12:29:49.466Z,1009.0
2022-11-05T12:30:49.475Z,1009.0
2022-11-05T12:31:49.482Z,1009.0
2022-11-05T12:32:49.699Z,1008.9
2022-11-05T12:33:49.501Z,1009.0
2022-11-05T12:34:49.510Z,1009.1
2022-11-05T12:35:57.718Z,1008.9
2022-11-05T12:36:49.527Z,1009.0
2022-11-05T12:37:49.533Z,1009.0
2022-11-05T12:38:49.538Z,1009.0
2022-11-05T12:39:49.544Z,1009.0
2022-11-05T12:40:49.559Z,1009.1
2022-11-05T12:41:49.558Z,1009.0
2022-11-05T12:42:49.569Z,1009.0
2022-11-05T12:43:49.581Z,1009.0
2022-11-05T12:44:49.590Z,1009.0
2022-11-05T12:45:49.605Z,1009.1
2022-11-05T12:46:49.612Z,1008.9